CheckWX is a tool to help pilots better visualize weather data.  It is not intended as a substitute for an official pre-flight weather briefing.

18:05:47 UTC

KGDB METAR
Granite Falls Municipal / Lenzen-Roe-Fagen Memorial Field Airport
Granite Falls, Minnesota, USA
Current

11 mins ago

KGDB 241755Z AUTO 21013KT 10SM CLR 22/07 A2977 RMK AO2 T02210073 10221 20096
Observed
Apr-24 @ 17:55 UTC
Wind
  • 210° at 13 KTS
Visibility
10 SM
Flight Rules
VFR
Cloud Levels
  • Clear skies
Temperature
22°C / 72°F
Dewpoint
C / 45°F
Humidity
38%
Altimeter
29.77" Hg
Pressure
1008.12 hPa
Previous

30 mins ago

KGDB 241736Z AUTO 22017KT 10SM CLR 22/07 A2978 RMK AO2 T02150072
Observed
Apr-24 @ 17:36 UTC
Wind
  • 220° at 17 KTS
Visibility
10 SM
Flight Rules
VFR
Cloud Levels
  • Clear skies
Temperature
22°C / 72°F
Dewpoint
C / 45°F
Humidity
38%
Altimeter
29.78" Hg
Pressure
1008.42 hPa
Previous

51 mins ago

KGDB 241715Z AUTO 20018G22KT 10SM CLR 21/06 A2979 RMK AO2 T02110062
Observed
Apr-24 @ 17:15 UTC
Wind
  • 200° at 18 KTS
  • Gusting to 22 KTS
Visibility
10 SM
Flight Rules
VFR
Cloud Levels
  • Clear skies
Temperature
21°C / 70°F
Dewpoint
C / 43°F
Humidity
38%
Altimeter
29.79" Hg
Pressure
1008.82 hPa